Great Pumpkin Run 5K                              
                                  Overall Male                                  
                                 October 8, 2016                                

For result questions, please send an e-mail to Mike at raceresults@pprrun.org

For other questions about the race, please contact the race director at bkates@springgov.com
Course: A mix of gravel roads and trails on Venetucci Farm and Pinello Ranch.

Weather: A brisk and sunny start to the day, warming to the 60's by race tiime.

OPlc GPlc AGPlc AGrp   Bib  Name                    Age Sex City             St Gun     Chip    Pace    USABA 
   1    1     1 M30-39 3912 Adam Rich                35  M  Colorado Springs CO 0:16:30 0:16:29 0:05:19       
   2    2     1 M40-49 9640 Jeff Turner              46  M  Colorado Springs CO 0:18:39 0:18:38 0:06:01       
   3    3     1 M20-29 9764 Kevin Hearne             24  M  Colorado Springs CO 0:19:06 0:19:04 0:06:09       
   4    4     2 M40-49 8964 Adolfo Carrillo          45  M  Colorado Springs CO 0:19:36 0:19:35 0:06:19       
   5    5     2 M20-29 3917 Andrew Romano            26  M  Colorado Springs CO 0:19:39 0:19:38 0:06:20       
   6    6     2 M30-39 8997 Patrick Vigil            32  M  Colorado Springs CO 0:19:53 0:19:53 0:06:25       
   7    7     3 M20-29 9768 Zac Potter               27  M  Colorado Springs CO 0:21:18 0:21:17 0:06:52       
   8    8     3 M40-49 3935 Lon Thurman              47  M  Colorado Springs CO 0:21:28 0:21:27 0:06:55       
   9    9     1 M50-59 9752 Barry Schneidermna       50  M  Colorado Springs CO 0:21:32 0:21:31 0:06:56       
  11   10     2 M50-59 3542 Randy Fielder            58  M  Security         CO 0:22:51 0:22:49 0:07:22       
  12   11     1 M01-19 8984 Carter Bayer             11  M  Colorado Springs CO 0:22:58 0:22:57 0:07:24       
  14   12     3 M30-39 3558 Ron Hawthorne            30  M  Colorado Springs CO 0:24:47 0:24:45 0:07:59 Yes   
  15   13     3 M50-59 9756 Guenther Michael         55  M  Monument         CO 0:24:50 0:24:48 0:08:00       
  16   14     4 M40-49 3532 Barry Donohue            45  M  Colorado Springs CO 0:25:00 0:24:51 0:08:01       
  18   15     4 M50-59 3510 Rich Baxter              51  M  Colorado Springs CO 0:25:34 0:25:30 0:08:14       
  19   16     4 M30-39 9773 Sanjeev Nirmalakhandan   37  M  Monument         CO 0:25:39 0:25:32 0:08:14       
  20   17     2 M01-19 3501 James Abeyta             11  M  Colorado Springs CO 0:25:57 0:25:55 0:08:22       
  21   18     3 M01-19 3548 Henry Godfredson         12  M  Colorado Springs CO 0:25:57 0:25:57 0:08:22       
  22   19     1 M60-69 3933 John Sudduth             66  M  Colorado Springs CO 0:26:00 0:25:58 0:08:23       
  25   20     5 M50-59 3549 Joel Godfredson          51  M  Colorado Springs CO 0:26:47 0:26:40 0:08:36       

OPlc GPlc AGPlc AGrp   Bib  Name                    Age Sex City             St Gun     Chip    Pace    USABA 
  26   21     6 M50-59 3919 Jim Rudolph              54  M  Colorado Springs CO 0:26:55 0:26:51 0:08:40       
  29   22     5 M40-49 3568 Jeff Johnson             49  M  Colorado Springs CO 0:27:18 0:27:15 0:08:47       
  30   23     4 M20-29 3497 Michael Hooker           23  M  Colorado Springs CO 0:27:18 0:27:17 0:08:48       
  31   24     5 M20-29 3499 Creighton Norton         26  M  Fountain         CO 0:27:25 0:27:25 0:08:51       
  32   25     6 M20-29 3926 Trevor Settles           25  M  Colorado Springs CO 0:27:41 0:27:39 0:08:55 Yes   
  35   26     6 M40-49 3504 Michael Amend            48  M  Colorado Springs CO 0:28:40 0:28:33 0:09:13       
  37   27     7 M50-59 9760 Nevin Bass               57  M  Castle Rock      CO 0:28:50 0:28:38 0:09:14       
  38   28     7 M40-49 3526 Jason Daily              41  M  Colorado Springs CO 0:29:08 0:28:54 0:09:19       
  40   29     2 M60-69 3936 Wayne Umland             60  M  Colorado Springs CO 0:29:26 0:29:10 0:09:25       
  42   30     7 M20-29 3930 Zack Spille              26  M  Colorado Springs CO 0:29:35 0:29:20 0:09:28       
  43   31     3 M60-69 5998 Steve Heniclse           61  M  Colorado Springs CO 0:29:39 0:29:33 0:09:32       
  44   32     1 M70-98 3923 Charles Schroeder        76  M  Woodland Park    CO 0:29:47 0:29:36 0:09:33       
  45   33     4 M01-19 8956 Robert Schmidt           10  M  Colorado Springs CO 0:30:07 0:29:57 0:09:40       
  47   34     5 M01-19 8918 Parker Embaugh           13  M  Colorado Springs CO 0:30:18 0:30:10 0:09:44       
  48   35     8 M50-59 3564 Garry Hill               57  M  Colorado Springs CO 0:30:21 0:30:19 0:09:47       
  52   36     8 M40-49 3566 Tom Holton               47  M  Colorado Springs CO 0:30:53 0:30:50 0:09:57       
  54   37     4 M60-69 3528 Andre Demoor             68  M  Colorado Springs CO 0:31:31 0:31:17 0:10:05       
  55   38     5 M30-39 3570 Chris Kiney              34  M  Colorado Springs CO 0:31:40 0:31:23 0:10:07 Yes   
  56   39     9 M50-59 3944 Allen Willoughby         52  M  Peyton           CO 0:31:44 0:31:30 0:10:10       
  57   40     6 M01-19 3500 Jared Holton             15  M  Colorado Springs CO 0:31:38 0:31:32 0:10:10       

OPlc GPlc AGPlc AGrp   Bib  Name                    Age Sex City             St Gun     Chip    Pace    USABA 
  58   41     5 M60-69 3534 Tyler Durden             60  M  Colorado Springs CO 0:31:53 0:31:34 0:10:11       
  60   42     6 M60-69 3576 Brian Maguire            60  M  Colorado Springs CO 0:31:57 0:31:52 0:10:17       
  64   43     9 M40-49 3563 Zachary Heuberger        46  M  Colorado Springs CO 0:33:15 0:32:56 0:10:37       
  66   44    10 M50-59 9639 Ronald Rockwell          58  M  Colorado Springs CO 0:33:44 0:33:36 0:10:50       
  67   45     7 M60-69 3946 Anthony N Woloch         62  M  Colorado Springs CO 0:34:10 0:33:44 0:10:53       
  68   46     8 M60-69 3508 Tom Baranowski           66  M  Colorado Springs CO 0:33:59 0:33:47 0:10:54       
  78   47     6 M30-39 3593 David Nietfield          35  M  Colorado Springs CO 0:35:25 0:35:20 0:11:24 Yes   
  80   48     8 M20-29 3502 Ryan Adams               24  M  Colorado Springs CO 0:35:54 0:35:44 0:11:32 Yes   
  83   49     7 M30-39 3903 Steve Patten             30  M  Colorado Springs CO 0:36:08 0:36:05 0:11:38 Yes   
  89   50     7 M01-19 9751 Tyler Blanscet            5  M  Colorado Springs CO 0:36:51 0:36:45 0:11:51       
  95   51    10 M40-49 3516 Jason Blanscet           46  M  Colorado Springs CO 0:37:28 0:37:22 0:12:03       
  98   52     8 M01-19 3580 Justin Marshall          15  M  Colorado Springs CO 0:37:48 0:37:47 0:12:11       
 101   53     9 M20-29 3520 Kevin Brousard           26  M  Colorado Springs CO 0:38:27 0:38:18 0:12:21 Yes   
 102   54    10 M20-29 3514 Taylor Bird              27  M  Colorado Springs CO 0:39:16 0:38:55 0:12:33       
 106   55     9 M01-19 3922 Elijah Sawyer            15  M  Castle Rock      CO 0:39:55 0:39:42 0:12:48       
 109   56    11 M40-49 3599 Richard Osborne          46  M  Monument         CO 0:41:56 0:41:46 0:13:28       
 113   57    12 M40-49 3584 Chuck McGrath            42  M  Colorado Springs CO 0:42:40 0:42:26 0:13:41       
 145   58    13 M40-49 3929 Dishon Spears            40  M  Colorado Springs CO 0:53:33 0:53:30 0:17:15 Yes   
 155   59    10 M01-19 3939 Isaac Walker              6  M  Colorado Springs CO 1:09:18 1:08:56 0:22:14